sensor_id;sensor_type;location;lat;lon;timestamp;pressure;altitude;pressure_sealevel;temperature;humidity
49377;BME280;35253;34.688;33.040;2024-03-07T00:00:34;100935.44;;;15.58;100.00
49377;BME280;35253;34.688;33.040;2024-03-07T00:03:00;100936.19;;;15.60;100.00
49377;BME280;35253;34.688;33.040;2024-03-07T00:05:26;100930.72;;;15.62;100.00
49377;BME280;35253;34.688;33.040;2024-03-07T00:07:53;100925.97;;;15.65;100.00
49377;BME280;35253;34.688;33.040;2024-03-07T00:10:19;100927.78;;;15.65;100.00
49377;BME280;35253;34.688;33.040;2024-03-07T00:12:46;100916.69;;;15.69;100.00
49377;BME280;35253;34.688;33.040;2024-03-07T00:15:14;100917.75;;;15.67;100.00
49377;BME280;35253;34.688;33.040;2024-03-07T00:17:40;100924.25;;;15.64;100.00
49377;BME280;35253;34.688;33.040;2024-03-07T00:20:06;100925.00;;;15.66;100.00
49377;BME280;35253;34.688;33.040;2024-03-07T00:22:35;100929.63;;;15.75;100.00
49377;BME280;35253;34.688;33.040;2024-03-07T00:25:01;100928.66;;;15.76;100.00
49377;BME280;35253;34.688;33.040;2024-03-07T00:27:27;100921.66;;;15.63;100.00
49377;BME280;35253;34.688;33.040;2024-03-07T00:29:52;100914.34;;;15.65;100.00
49377;BME280;35253;34.688;33.040;2024-03-07T00:32:22;100914.09;;;15.68;100.00
49377;BME280;35253;34.688;33.040;2024-03-07T00:34:49;100905.53;;;15.63;100.00
49377;BME280;35253;34.688;33.040;2024-03-07T00:37:16;100921.72;;;15.50;100.00
49377;BME280;35253;34.688;33.040;2024-03-07T00:39:42;100903.47;;;15.43;100.00
49377;BME280;35253;34.688;33.040;2024-03-07T00:42:08;100899.28;;;15.51;100.00
49377;BME280;35253;34.688;33.040;2024-03-07T00:44:34;100896.59;;;15.51;100.00
49377;BME280;35253;34.688;33.040;2024-03-07T00:47:01;100909.47;;;15.46;100.00
49377;BME280;35253;34.688;33.040;2024-03-07T00:49:30;100904.94;;;15.36;100.00
49377;BME280;35253;34.688;33.040;2024-03-07T00:51:56;100908.44;;;15.36;100.00
49377;BME280;35253;34.688;33.040;2024-03-07T00:54:22;100912.41;;;15.43;100.00
49377;BME280;35253;34.688;33.040;2024-03-07T00:56:48;100908.00;;;15.42;100.00
49377;BME280;35253;34.688;33.040;2024-03-07T00:59:17;100913.59;;;15.39;100.00
49377;BME280;35253;34.688;33.040;2024-03-07T01:01:43;100916.03;;;15.31;100.00
49377;BME280;35253;34.688;33.040;2024-03-07T01:04:09;100908.59;;;15.46;100.00
49377;BME280;35253;34.688;33.040;2024-03-07T01:06:35;100903.03;;;15.49;100.00
49377;BME280;35253;34.688;33.040;2024-03-07T01:09:06;100905.41;;;15.53;100.00
49377;BME280;35253;34.688;33.040;2024-03-07T01:11:39;100910.34;;;15.47;100.00
49377;BME280;35253;34.688;33.040;2024-03-07T01:14:04;100913.78;;;15.49;100.00
49377;BME280;35253;34.688;33.040;2024-03-07T01:16:30;100911.19;;;15.47;100.00
49377;BME280;35253;34.688;33.040;2024-03-07T01:18:56;100922.34;;;15.54;100.00
49377;BME280;35253;34.688;33.040;2024-03-07T01:21:21;100922.16;;;15.57;100.00
49377;BME280;35253;34.688;33.040;2024-03-07T01:23:47;100915.22;;;15.65;100.00
49377;BME280;35253;34.688;33.040;2024-03-07T01:26:12;100911.03;;;15.61;100.00
49377;BME280;35253;34.688;33.040;2024-03-07T01:28:39;100909.84;;;15.65;100.00
49377;BME280;35253;34.688;33.040;2024-03-07T01:31:06;100908.47;;;15.71;100.00
49377;BME280;35253;34.688;33.040;2024-03-07T01:33:33;100905.44;;;15.75;100.00
49377;BME280;35253;34.688;33.040;2024-03-07T01:35:59;100908.63;;;15.81;100.00
49377;BME280;35253;34.688;33.040;2024-03-07T01:38:24;100915.72;;;15.82;100.00
49377;BME280;35253;34.688;33.040;2024-03-07T01:40:50;100915.47;;;15.73;100.00
49377;BME280;35253;34.688;33.040;2024-03-07T01:43:16;100915.38;;;15.75;100.00
49377;BME280;35253;34.688;33.040;2024-03-07T01:45:42;100911.69;;;15.76;100.00
49377;BME280;35253;34.688;33.040;2024-03-07T01:48:14;100920.00;;;15.84;100.00
49377;BME280;35253;34.688;33.040;2024-03-07T01:50:46;100919.28;;;15.82;100.00
49377;BME280;35253;34.688;33.040;2024-03-07T01:53:13;100918.06;;;15.75;100.00
49377;BME280;35253;34.688;33.040;2024-03-07T01:55:39;100924.31;;;15.87;100.00
49377;BME280;35253;34.688;33.040;2024-03-07T01:58:06;100921.63;;;15.87;100.00
49377;BME280;35253;34.688;33.040;2024-03-07T02:00:34;100924.31;;;15.87;100.00
49377;BME280;35253;34.688;33.040;2024-03-07T02:02:59;100930.06;;;15.93;100.00
49377;BME280;35253;34.688;33.040;2024-03-07T02:05:25;100926.16;;;15.62;100.00
49377;BME280;35253;34.688;33.040;2024-03-07T02:07:51;100925.06;;;15.41;100.00
49377;BME280;35253;34.688;33.040;2024-03-07T02:10:17;100923.59;;;15.37;100.00
49377;BME280;35253;34.688;33.040;2024-03-07T02:12:43;100927.44;;;15.22;100.00
49377;BME280;35253;34.688;33.040;2024-03-07T02:15:10;100934.75;;;15.20;100.00
49377;BME280;35253;34.688;33.040;2024-03-07T02:17:37;100931.69;;;15.13;100.00
49377;BME280;35253;34.688;33.040;2024-03-07T02:20:03;100928.13;;;15.13;100.00
49377;BME280;35253;34.688;33.040;2024-03-07T02:22:33;100933.25;;;15.16;100.00
49377;BME280;35253;34.688;33.040;2024-03-07T02:24:59;100938.19;;;15.22;100.00
49377;BME280;35253;34.688;33.040;2024-03-07T02:27:24;100935.16;;;15.26;100.00
49377;BME280;35253;34.688;33.040;2024-03-07T02:29:50;100929.94;;;15.36;100.00
49377;BME280;35253;34.688;33.040;2024-03-07T02:32:16;100929.03;;;15.48;100.00
49377;BME280;35253;34.688;33.040;2024-03-07T02:34:43;100924.94;;;15.55;100.00
49377;BME280;35253;34.688;33.040;2024-03-07T02:37:09;100921.03;;;15.59;100.00
49377;BME280;35253;34.688;33.040;2024-03-07T02:39:36;100919.22;;;15.60;100.00
49377;BME280;35253;34.688;33.040;2024-03-07T02:42:02;100919.63;;;15.66;100.00
49377;BME280;35253;34.688;33.040;2024-03-07T02:44:28;100930.63;;;15.74;100.00
49377;BME280;35253;34.688;33.040;2024-03-07T02:46:53;100930.63;;;15.74;100.00
49377;BME280;35253;34.688;33.040;2024-03-07T02:49:20;100933.78;;;15.68;100.00
49377;BME280;35253;34.688;33.040;2024-03-07T02:51:47;100928.28;;;15.70;100.00
49377;BME280;35253;34.688;33.040;2024-03-07T02:54:13;100933.25;;;15.63;100.00
49377;BME280;35253;34.688;33.040;2024-03-07T02:56:38;100936.22;;;15.71;100.00
49377;BME280;35253;34.688;33.040;2024-03-07T02:59:04;100937.94;;;15.72;100.00
49377;BME280;35253;34.688;33.040;2024-03-07T03:01:30;100937.34;;;15.69;100.00
49377;BME280;35253;34.688;33.040;2024-03-07T03:03:55;100941.84;;;15.68;100.00
49377;BME280;35253;34.688;33.040;2024-03-07T03:06:21;100949.66;;;15.71;100.00
49377;BME280;35253;34.688;33.040;2024-03-07T03:08:47;100953.53;;;15.56;100.00
49377;BME280;35253;34.688;33.040;2024-03-07T03:11:13;100956.72;;;15.61;100.00
49377;BME280;35253;34.688;33.040;2024-03-07T03:13:43;100963.59;;;15.65;100.00
49377;BME280;35253;34.688;33.040;2024-03-07T03:16:09;100951.13;;;15.64;100.00
49377;BME280;35253;34.688;33.040;2024-03-07T03:18:37;100960.16;;;15.63;100.00
49377;BME280;35253;34.688;33.040;2024-03-07T03:21:03;100961.84;;;15.53;100.00
49377;BME280;35253;34.688;33.040;2024-03-07T03:23:29;100968.22;;;15.40;100.00
49377;BME280;35253;34.688;33.040;2024-03-07T03:25:54;100970.91;;;15.27;100.00
49377;BME280;35253;34.688;33.040;2024-03-07T03:28:21;100977.72;;;15.20;100.00
49377;BME280;35253;34.688;33.040;2024-03-07T03:30:47;100968.69;;;15.21;100.00
49377;BME280;35253;34.688;33.040;2024-03-07T03:33:13;100969.38;;;15.12;100.00
49377;BME280;35253;34.688;33.040;2024-03-07T03:35:39;100967.84;;;15.20;100.00
49377;BME280;35253;34.688;33.040;2024-03-07T03:38:06;100965.25;;;15.19;100.00
49377;BME280;35253;34.688;33.040;2024-03-07T03:40:32;100970.44;;;15.22;100.00
49377;BME280;35253;34.688;33.040;2024-03-07T03:42:59;100982.13;;;15.21;100.00
49377;BME280;35253;34.688;33.040;2024-03-07T03:45:25;100968.69;;;15.21;100.00
49377;BME280;35253;34.688;33.040;2024-03-07T03:47:53;100971.91;;;15.26;100.00
49377;BME280;35253;34.688;33.040;2024-03-07T03:50:19;100975.13;;;15.18;100.00
49377;BME280;35253;34.688;33.040;2024-03-07T03:52:45;100977.19;;;15.15;100.00
49377;BME280;35253;34.688;33.040;2024-03-07T03:55:10;100971.69;;;15.29;100.00
49377;BME280;35253;34.688;33.040;2024-03-07T03:57:40;100972.31;;;15.32;100.00
49377;BME280;35253;34.688;33.040;2024-03-07T04:00:08;100964.56;;;15.28;100.00
49377;BME280;35253;34.688;33.040;2024-03-07T04:02:40;100975.28;;;15.17;100.00
49377;BME280;35253;34.688;33.040;2024-03-07T04:05:10;100976.63;;;14.99;100.00
49377;BME280;35253;34.688;33.040;2024-03-07T04:07:39;100982.06;;;14.97;100.00
49377;BME280;35253;34.688;33.040;2024-03-07T04:10:05;100973.97;;;15.10;100.00
49377;BME280;35253;34.688;33.040;2024-03-07T04:12:35;100984.22;;;15.05;100.00
49377;BME280;35253;34.688;33.040;2024-03-07T04:15:00;100988.97;;;14.88;100.00
49377;BME280;35253;34.688;33.040;2024-03-07T04:17:26;100976.13;;;14.81;100.00
49377;BME280;35253;34.688;33.040;2024-03-07T04:19:52;100985.88;;;14.82;100.00
49377;BME280;35253;34.688;33.040;2024-03-07T04:22:18;100993.50;;;14.75;100.00
49377;BME280;35253;34.688;33.040;2024-03-07T04:24:47;101000.53;;;14.65;100.00
49377;BME280;35253;34.688;33.040;2024-03-07T04:27:19;101004.81;;;14.55;100.00
49377;BME280;35253;34.688;33.040;2024-03-07T04:29:45;100995.91;;;14.42;100.00
49377;BME280;35253;34.688;33.040;2024-03-07T04:32:13;101001.81;;;14.47;100.00
49377;BME280;35253;34.688;33.040;2024-03-07T04:34:39;101001.16;;;14.43;100.00
49377;BME280;35253;34.688;33.040;2024-03-07T04:37:05;101003.19;;;14.40;100.00
49377;BME280;35253;34.688;33.040;2024-03-07T04:39:30;101013.09;;;14.52;100.00
49377;BME280;35253;34.688;33.040;2024-03-07T04:42:00;101005.34;;;14.60;100.00
49377;BME280;35253;34.688;33.040;2024-03-07T04:44:27;101014.91;;;14.52;100.00
49377;BME280;35253;34.688;33.040;2024-03-07T04:46:53;101017.69;;;14.50;100.00
49377;BME280;35253;34.688;33.040;2024-03-07T04:49:25;101012.00;;;14.42;100.00
49377;BME280;35253;34.688;33.040;2024-03-07T04:51:52;101016.06;;;14.85;100.00
49377;BME280;35253;34.688;33.040;2024-03-07T04:54:18;101015.16;;;14.98;100.00
49377;BME280;35253;34.688;33.040;2024-03-07T04:56:45;101015.81;;;14.88;100.00
49377;BME280;35253;34.688;33.040;2024-03-07T04:59:11;101014.66;;;14.80;100.00
49377;BME280;35253;34.688;33.040;2024-03-07T05:01:38;101020.34;;;14.75;100.00
49377;BME280;35253;34.688;33.040;2024-03-07T05:04:04;101023.91;;;14.76;100.00
49377;BME280;35253;34.688;33.040;2024-03-07T05:06:29;101022.25;;;14.99;100.00
49377;BME280;35253;34.688;33.040;2024-03-07T05:09:00;101028.69;;;15.09;100.00
49377;BME280;35253;34.688;33.040;2024-03-07T05:11:27;101027.41;;;15.02;100.00
49377;BME280;35253;34.688;33.040;2024-03-07T05:13:53;101035.44;;;15.02;100.00
49377;BME280;35253;34.688;33.040;2024-03-07T05:16:19;101039.84;;;15.15;100.00
49377;BME280;35253;34.688;33.040;2024-03-07T05:18:45;101037.81;;;15.43;100.00
49377;BME280;35253;34.688;33.040;2024-03-07T05:21:11;101030.84;;;15.40;100.00
49377;BME280;35253;34.688;33.040;2024-03-07T05:24:06;101036.78;;;15.32;100.00
49377;BME280;35253;34.688;33.040;2024-03-07T05:26:36;101042.09;;;15.45;100.00
49377;BME280;35253;34.688;33.040;2024-03-07T05:29:08;101042.34;;;15.42;100.00
49377;BME280;35253;34.688;33.040;2024-03-07T05:31:36;101037.75;;;15.68;100.00
49377;BME280;35253;34.688;33.040;2024-03-07T05:34:03;101039.47;;;15.93;100.00
49377;BME280;35253;34.688;33.040;2024-03-07T05:36:32;101041.22;;;16.05;100.00
49377;BME280;35253;34.688;33.040;2024-03-07T05:38:58;101045.91;;;16.14;100.00
49377;BME280;35253;34.688;33.040;2024-03-07T05:41:34;101051.56;;;16.33;100.00
49377;BME280;35253;34.688;33.040;2024-03-07T05:43:59;101058.47;;;16.48;100.00
49377;BME280;35253;34.688;33.040;2024-03-07T05:46:25;101059.59;;;16.57;100.00
49377;BME280;35253;34.688;33.040;2024-03-07T05:48:51;101064.44;;;16.76;100.00
49377;BME280;35253;34.688;33.040;2024-03-07T05:51:22;101069.56;;;16.90;100.00
49377;BME280;35253;34.688;33.040;2024-03-07T05:53:49;101065.16;;;17.22;100.00
49377;BME280;35253;34.688;33.040;2024-03-07T05:56:15;101062.84;;;17.29;100.00
49377;BME280;35253;34.688;33.040;2024-03-07T05:58:40;101069.06;;;17.29;100.00
49377;BME280;35253;34.688;33.040;2024-03-07T06:01:06;101069.06;;;17.29;100.00
49377;BME280;35253;34.688;33.040;2024-03-07T06:03:34;101067.47;;;17.38;100.00
49377;BME280;35253;34.688;33.040;2024-03-07T06:05:59;101072.47;;;17.53;100.00
49377;BME280;35253;34.688;33.040;2024-03-07T06:08:25;101070.28;;;17.47;100.00
49377;BME280;35253;34.688;33.040;2024-03-07T06:10:51;101076.66;;;17.46;100.00
49377;BME280;35253;34.688;33.040;2024-03-07T06:13:16;101068.78;;;17.77;100.00
49377;BME280;35253;34.688;33.040;2024-03-07T06:15:46;101079.06;;;17.83;100.00
49377;BME280;35253;34.688;33.040;2024-03-07T06:18:13;101078.41;;;17.90;100.00
49377;BME280;35253;34.688;33.040;2024-03-07T06:20:45;101079.19;;;18.13;100.00
49377;BME280;35253;34.688;33.040;2024-03-07T06:23:11;101074.78;;;18.12;100.00
49377;BME280;35253;34.688;33.040;2024-03-07T06:25:41;101093.72;;;18.01;100.00
49377;BME280;35253;34.688;33.040;2024-03-07T06:28:17;101086.03;;;18.17;100.00
49377;BME280;35253;34.688;33.040;2024-03-07T06:30:46;101087.56;;;18.10;100.00
49377;BME280;35253;34.688;33.040;2024-03-07T06:33:13;101097.28;;;17.90;100.00
49377;BME280;35253;34.688;33.040;2024-03-07T06:35:40;101097.06;;;17.93;100.00
49377;BME280;35253;34.688;33.040;2024-03-07T06:38:07;101089.56;;;17.97;100.00
49377;BME280;35253;34.688;33.040;2024-03-07T06:40:40;101093.28;;;17.85;100.00
49377;BME280;35253;34.688;33.040;2024-03-07T06:43:06;101099.88;;;17.92;100.00
49377;BME280;35253;34.688;33.040;2024-03-07T06:45:38;101105.53;;;17.78;100.00
49377;BME280;35253;34.688;33.040;2024-03-07T06:48:06;101109.00;;;17.69;100.00
49377;BME280;35253;34.688;33.040;2024-03-07T06:50:35;101113.63;;;17.78;100.00
49377;BME280;35253;34.688;33.040;2024-03-07T06:53:05;101108.88;;;17.70;100.00
49377;BME280;35253;34.688;33.040;2024-03-07T06:55:34;101109.38;;;17.75;100.00
49377;BME280;35253;34.688;33.040;2024-03-07T06:58:01;101111.69;;;17.57;100.00
49377;BME280;35253;34.688;33.040;2024-03-07T07:00:30;101110.22;;;17.76;100.00
49377;BME280;35253;34.688;33.040;2024-03-07T07:02:57;101114.75;;;17.75;100.00
49377;BME280;35253;34.688;33.040;2024-03-07T07:05:23;101115.34;;;17.79;100.00
49377;BME280;35253;34.688;33.040;2024-03-07T07:07:48;101115.34;;;17.90;100.00
49377;BME280;35253;34.688;33.040;2024-03-07T07:10:14;101113.25;;;17.93;100.00
49377;BME280;35253;34.688;33.040;2024-03-07T07:12:49;101108.56;;;17.95;100.00
49377;BME280;35253;34.688;33.040;2024-03-07T07:15:17;101108.44;;;17.97;100.00
49377;BME280;35253;34.688;33.040;2024-03-07T07:17:44;101116.66;;;17.95;100.00
49377;BME280;35253;34.688;33.040;2024-03-07T07:20:17;101111.78;;;17.89;100.00
49377;BME280;35253;34.688;33.040;2024-03-07T07:22:45;101107.00;;;17.93;100.00
49377;BME280;35253;34.688;33.040;2024-03-07T07:25:14;101103.06;;;17.97;100.00
49377;BME280;35253;34.688;33.040;2024-03-07T07:27:47;101103.66;;;18.00;100.00
49377;BME280;35253;34.688;33.040;2024-03-07T07:30:15;101107.00;;;18.25;100.00
49377;BME280;35253;34.688;33.040;2024-03-07T07:32:41;101114.88;;;18.17;100.00
49377;BME280;35253;34.688;33.040;2024-03-07T07:35:09;101110.56;;;18.25;100.00
49377;BME280;35253;34.688;33.040;2024-03-07T07:37:44;101120.22;;;18.28;100.00
49377;BME280;35253;34.688;33.040;2024-03-07T07:40:12;101109.13;;;18.42;100.00
49377;BME280;35253;34.688;33.040;2024-03-07T07:42:47;101119.50;;;18.58;100.00
49377;BME280;35253;34.688;33.040;2024-03-07T07:45:14;101120.75;;;18.74;100.00
49377;BME280;35253;34.688;33.040;2024-03-07T07:47:42;101111.72;;;18.85;100.00
49377;BME280;35253;34.688;33.040;2024-03-07T07:50:12;101116.84;;;18.88;100.00
49377;BME280;35253;34.688;33.040;2024-03-07T07:52:52;101104.28;;;18.77;100.00
49377;BME280;35253;34.688;33.040;2024-03-07T07:55:26;101102.88;;;18.83;100.00
49377;BME280;35253;34.688;33.040;2024-03-07T07:57:54;101110.00;;;18.84;100.00
49377;BME280;35253;34.688;33.040;2024-03-07T08:00:25;101109.50;;;18.90;100.00
49377;BME280;35253;34.688;33.040;2024-03-07T08:02:56;101104.19;;;18.88;100.00
49377;BME280;35253;34.688;33.040;2024-03-07T08:05:23;101108.94;;;18.96;100.00
49377;BME280;35253;34.688;33.040;2024-03-07T08:07:53;101119.50;;;18.99;100.00
49377;BME280;35253;34.688;33.040;2024-03-07T08:10:21;101112.31;;;18.88;100.00
49377;BME280;35253;34.688;33.040;2024-03-07T08:12:49;101110.56;;;18.78;100.00
49377;BME280;35253;34.688;33.040;2024-03-07T08:15:15;101130.69;;;18.74;100.00
49377;BME280;35253;34.688;33.040;2024-03-07T08:17:45;101118.78;;;18.44;100.00
49377;BME280;35253;34.688;33.040;2024-03-07T08:20:12;101112.13;;;18.60;100.00
49377;BME280;35253;34.688;33.040;2024-03-07T08:22:42;101117.81;;;18.45;100.00
49377;BME280;35253;34.688;33.040;2024-03-07T08:25:10;101119.94;;;18.42;100.00
49377;BME280;35253;34.688;33.040;2024-03-07T08:27:37;101117.94;;;18.44;100.00
49377;BME280;35253;34.688;33.040;2024-03-07T08:30:04;101124.94;;;18.46;100.00
49377;BME280;35253;34.688;33.040;2024-03-07T08:32:36;101134.13;;;18.55;100.00
49377;BME280;35253;34.688;33.040;2024-03-07T08:35:06;101138.44;;;18.46;100.00
49377;BME280;35253;34.688;33.040;2024-03-07T08:37:39;101126.69;;;18.68;100.00
49377;BME280;35253;34.688;33.040;2024-03-07T08:40:11;101120.81;;;18.84;100.00
49377;BME280;35253;34.688;33.040;2024-03-07T08:42:45;101133.19;;;18.66;100.00
49377;BME280;35253;34.688;33.040;2024-03-07T08:45:11;101142.81;;;18.47;100.00
49377;BME280;35253;34.688;33.040;2024-03-07T08:47:42;101139.91;;;18.51;100.00
49377;BME280;35253;34.688;33.040;2024-03-07T08:50:09;101151.19;;;18.44;100.00
49377;BME280;35253;34.688;33.040;2024-03-07T08:52:35;101147.44;;;18.36;100.00
49377;BME280;35253;34.688;33.040;2024-03-07T08:55:11;101154.59;;;18.58;100.00
49377;BME280;35253;34.688;33.040;2024-03-07T08:57:41;101142.50;;;18.73;100.00
49377;BME280;35253;34.688;33.040;2024-03-07T09:00:07;101153.44;;;18.92;100.00
49377;BME280;35253;34.688;33.040;2024-03-07T09:02:34;101135.44;;;19.02;100.00
49377;BME280;35253;34.688;33.040;2024-03-07T09:05:04;101152.06;;;19.28;100.00
49377;BME280;35253;34.688;33.040;2024-03-07T09:07:29;101131.41;;;19.17;100.00
49377;BME280;35253;34.688;33.040;2024-03-07T09:09:55;101133.41;;;18.95;100.00
49377;BME280;35253;34.688;33.040;2024-03-07T09:12:22;101141.75;;;19.12;100.00
49377;BME280;35253;34.688;33.040;2024-03-07T09:14:47;101143.75;;;18.69;100.00
49377;BME280;35253;34.688;33.040;2024-03-07T09:17:13;101138.56;;;18.77;100.00
49377;BME280;35253;34.688;33.040;2024-03-07T09:19:39;101136.34;;;19.12;100.00
49377;BME280;35253;34.688;33.040;2024-03-07T09:22:04;101126.41;;;18.92;100.00
49377;BME280;35253;34.688;33.040;2024-03-07T09:24:33;101137.09;;;18.94;100.00
49377;BME280;35253;34.688;33.040;2024-03-07T09:27:00;101126.69;;;19.19;100.00
49377;BME280;35253;34.688;33.040;2024-03-07T09:29:26;101128.88;;;19.25;100.00
49377;BME280;35253;34.688;33.040;2024-03-07T09:31:53;101137.88;;;19.35;100.00
49377;BME280;35253;34.688;33.040;2024-03-07T09:34:20;101124.78;;;19.41;100.00
49377;BME280;35253;34.688;33.040;2024-03-07T09:36:49;101127.81;;;19.77;100.00
49377;BME280;35253;34.688;33.040;2024-03-07T09:39:15;101128.31;;;19.62;100.00
49377;BME280;35253;34.688;33.040;2024-03-07T09:41:41;101125.22;;;19.76;100.00
49377;BME280;35253;34.688;33.040;2024-03-07T09:44:14;101126.41;;;19.83;100.00
49377;BME280;35253;34.688;33.040;2024-03-07T09:46:48;101116.13;;;19.77;100.00
49377;BME280;35253;34.688;33.040;2024-03-07T09:49:15;101115.06;;;19.59;100.00
49377;BME280;35253;34.688;33.040;2024-03-07T09:51:43;101116.41;;;19.74;100.00
49377;BME280;35253;34.688;33.040;2024-03-07T09:54:10;101116.56;;;20.01;100.00
49377;BME280;35253;34.688;33.040;2024-03-07T09:56:36;101108.47;;;19.92;100.00
49377;BME280;35253;34.688;33.040;2024-03-07T09:59:04;101126.56;;;19.91;100.00
49377;BME280;35253;34.688;33.040;2024-03-07T10:01:34;101099.59;;;19.80;100.00
49377;BME280;35253;34.688;33.040;2024-03-07T10:04:01;101099.72;;;19.69;100.00
49377;BME280;35253;34.688;33.040;2024-03-07T10:06:43;101105.63;;;20.03;100.00
49377;BME280;35253;34.688;33.040;2024-03-07T10:09:13;101102.47;;;19.98;100.00
49377;BME280;35253;34.688;33.040;2024-03-07T10:11:42;101087.38;;;20.24;100.00
49377;BME280;35253;34.688;33.040;2024-03-07T10:14:09;101085.09;;;20.10;100.00
49377;BME280;35253;34.688;33.040;2024-03-07T10:16:35;101083.09;;;20.02;100.00
49377;BME280;35253;34.688;33.040;2024-03-07T10:19:04;101081.41;;;20.11;100.00
49377;BME280;35253;34.688;33.040;2024-03-07T10:21:30;101072.28;;;20.02;100.00
49377;BME280;35253;34.688;33.040;2024-03-07T10:24:08;101075.75;;;20.33;100.00
49377;BME280;35253;34.688;33.040;2024-03-07T10:26:37;101076.41;;;20.16;100.00
49377;BME280;35253;34.688;33.040;2024-03-07T10:29:04;101063.75;;;20.26;100.00
49377;BME280;35253;34.688;33.040;2024-03-07T10:31:34;101051.19;;;20.54;100.00
49377;BME280;35253;34.688;33.040;2024-03-07T10:34:04;101072.91;;;20.35;100.00
49377;BME280;35253;34.688;33.040;2024-03-07T10:36:31;101078.78;;;20.86;100.00
49377;BME280;35253;34.688;33.040;2024-03-07T10:39:00;101069.97;;;20.84;100.00
49377;BME280;35253;34.688;33.040;2024-03-07T10:41:28;101070.41;;;20.80;100.00
49377;BME280;35253;34.688;33.040;2024-03-07T10:43:57;101058.84;;;20.68;100.00
49377;BME280;35253;34.688;33.040;2024-03-07T10:46:26;101061.09;;;20.82;100.00
49377;BME280;35253;34.688;33.040;2024-03-07T10:48:55;101054.91;;;20.53;100.00
49377;BME280;35253;34.688;33.040;2024-03-07T10:51:34;101058.31;;;20.55;100.00
49377;BME280;35253;34.688;33.040;2024-03-07T10:59:25;101054.25;;;20.88;100.00
49377;BME280;35253;34.688;33.040;2024-03-07T11:04:50;101056.63;;;21.00;100.00
49377;BME280;35253;34.688;33.040;2024-03-07T11:07:22;101046.06;;;20.60;100.00
49377;BME280;35253;34.688;33.040;2024-03-07T11:09:52;101051.72;;;20.67;100.00
49377;BME280;35253;34.688;33.040;2024-03-07T11:12:19;101057.00;;;20.78;100.00
49377;BME280;35253;34.688;33.040;2024-03-07T11:14:48;101056.59;;;20.54;100.00
49377;BME280;35253;34.688;33.040;2024-03-07T11:17:14;101052.75;;;21.12;100.00
49377;BME280;35253;34.688;33.040;2024-03-07T11:19:41;101057.38;;;20.93;100.00
49377;BME280;35253;34.688;33.040;2024-03-07T11:22:07;101056.69;;;20.81;100.00
49377;BME280;35253;34.688;33.040;2024-03-07T11:24:41;101034.84;;;20.92;100.00
49377;BME280;35253;34.688;33.040;2024-03-07T11:27:09;101043.63;;;21.13;100.00
49377;BME280;35253;34.688;33.040;2024-03-07T11:32:09;101059.09;;;21.58;100.00
49377;BME280;35253;34.688;33.040;2024-03-07T11:34:37;101033.47;;;21.43;100.00
49377;BME280;35253;34.688;33.040;2024-03-07T11:37:07;101050.38;;;21.37;100.00
49377;BME280;35253;34.688;33.040;2024-03-07T11:39:49;101037.88;;;21.17;100.00
49377;BME280;35253;34.688;33.040;2024-03-07T11:44:51;101039.19;;;21.40;100.00
49377;BME280;35253;34.688;33.040;2024-03-07T11:47:17;101024.56;;;20.86;100.00
49377;BME280;35253;34.688;33.040;2024-03-07T11:49:44;101015.69;;;20.94;100.00
49377;BME280;35253;34.688;33.040;2024-03-07T11:52:15;101016.44;;;20.86;100.00
49377;BME280;35253;34.688;33.040;2024-03-07T11:54:42;101027.38;;;20.94;100.00
49377;BME280;35253;34.688;33.040;2024-03-07T11:59:45;101021.28;;;20.92;100.00
49377;BME280;35253;34.688;33.040;2024-03-07T12:02:12;101019.38;;;21.02;100.00
49377;BME280;35253;34.688;33.040;2024-03-07T12:04:41;101012.88;;;21.23;100.00
49377;BME280;35253;34.688;33.040;2024-03-07T12:07:06;101017.88;;;21.27;100.00
49377;BME280;35253;34.688;33.040;2024-03-07T12:09:37;101022.06;;;21.02;100.00
49377;BME280;35253;34.688;33.040;2024-03-07T12:12:06;101010.09;;;21.05;100.00
49377;BME280;35253;34.688;33.040;2024-03-07T12:14:32;101018.56;;;20.92;100.00
49377;BME280;35253;34.688;33.040;2024-03-07T12:17:02;101004.22;;;21.09;100.00
49377;BME280;35253;34.688;33.040;2024-03-07T12:19:30;101022.06;;;20.75;100.00
49377;BME280;35253;34.688;33.040;2024-03-07T12:22:00;101025.56;;;21.32;100.00
49377;BME280;35253;34.688;33.040;2024-03-07T12:24:26;101026.06;;;21.08;100.00
49377;BME280;35253;34.688;33.040;2024-03-07T12:26:52;101018.50;;;21.02;100.00
49377;BME280;35253;34.688;33.040;2024-03-07T12:29:25;101017.38;;;21.14;100.00
49377;BME280;35253;34.688;33.040;2024-03-07T12:31:51;101007.28;;;20.41;100.00
49377;BME280;35253;34.688;33.040;2024-03-07T12:34:17;101016.34;;;20.78;100.00
49377;BME280;35253;34.688;33.040;2024-03-07T12:36:42;101027.75;;;20.72;100.00
49377;BME280;35253;34.688;33.040;2024-03-07T12:39:27;101024.00;;;20.92;100.00
49377;BME280;35253;34.688;33.040;2024-03-07T12:41:58;101011.84;;;20.50;100.00
49377;BME280;35253;34.688;33.040;2024-03-07T12:44:24;101023.53;;;20.41;100.00
49377;BME280;35253;34.688;33.040;2024-03-07T12:46:53;101033.34;;;20.61;100.00
49377;BME280;35253;34.688;33.040;2024-03-07T12:49:24;101019.50;;;20.64;100.00